sensor_id;sensor_type;location;lat;lon;timestamp;P1;durP1;ratioP1;P2;durP2;ratioP2
1545;SDS011;766;51.502;9.752;2023-09-12T00:00:11;13.25;;;5.68;;
1545;SDS011;766;51.502;9.752;2023-09-12T00:02:40;19.50;;;5.63;;
1545;SDS011;766;51.502;9.752;2023-09-12T00:05:09;14.90;;;5.53;;
1545;SDS011;766;51.502;9.752;2023-09-12T00:07:38;15.15;;;5.35;;
1545;SDS011;766;51.502;9.752;2023-09-12T00:10:07;18.50;;;5.80;;
1545;SDS011;766;51.502;9.752;2023-09-12T00:12:37;16.75;;;5.65;;
1545;SDS011;766;51.502;9.752;2023-09-12T00:15:08;14.82;;;5.65;;
1545;SDS011;766;51.502;9.752;2023-09-12T00:17:37;15.10;;;6.50;;
1545;SDS011;766;51.502;9.752;2023-09-12T00:20:05;15.35;;;5.70;;
1545;SDS011;766;51.502;9.752;2023-09-12T00:22:34;13.68;;;6.18;;
1545;SDS011;766;51.502;9.752;2023-09-12T00:25:03;16.65;;;5.85;;
1545;SDS011;766;51.502;9.752;2023-09-12T00:27:32;12.95;;;5.25;;
1545;SDS011;766;51.502;9.752;2023-09-12T00:30:02;18.02;;;5.30;;
1545;SDS011;766;51.502;9.752;2023-09-12T00:35:52;14.23;;;6.00;;
1545;SDS011;766;51.502;9.752;2023-09-12T00:38:20;17.05;;;5.63;;
1545;SDS011;766;51.502;9.752;2023-09-12T00:40:50;23.58;;;5.97;;
1545;SDS011;766;51.502;9.752;2023-09-12T00:43:18;10.68;;;5.97;;
1545;SDS011;766;51.502;9.752;2023-09-12T00:45:48;12.20;;;5.85;;
1545;SDS011;766;51.502;9.752;2023-09-12T00:48:16;10.23;;;5.45;;
1545;SDS011;766;51.502;9.752;2023-09-12T00:50:45;15.98;;;5.63;;
1545;SDS011;766;51.502;9.752;2023-09-12T00:53:14;11.75;;;5.38;;
1545;SDS011;766;51.502;9.752;2023-09-12T00:55:44;18.33;;;5.22;;
1545;SDS011;766;51.502;9.752;2023-09-12T00:58:17;12.23;;;5.78;;
1545;SDS011;766;51.502;9.752;2023-09-12T01:00:48;14.30;;;6.28;;
1545;SDS011;766;51.502;9.752;2023-09-12T01:03:16;12.93;;;5.68;;
1545;SDS011;766;51.502;9.752;2023-09-12T01:05:44;16.80;;;6.35;;
1545;SDS011;766;51.502;9.752;2023-09-12T01:08:13;12.07;;;6.18;;
1545;SDS011;766;51.502;9.752;2023-09-12T01:10:42;12.80;;;5.72;;
1545;SDS011;766;51.502;9.752;2023-09-12T01:13:13;15.48;;;6.07;;
1545;SDS011;766;51.502;9.752;2023-09-12T01:15:44;16.38;;;6.55;;
1545;SDS011;766;51.502;9.752;2023-09-12T01:18:14;16.40;;;6.32;;
1545;SDS011;766;51.502;9.752;2023-09-12T01:20:52;12.68;;;6.38;;
1545;SDS011;766;51.502;9.752;2023-09-12T01:23:36;13.93;;;6.35;;
1545;SDS011;766;51.502;9.752;2023-09-12T01:29:10;14.18;;;6.38;;
1545;SDS011;766;51.502;9.752;2023-09-12T01:31:40;12.15;;;6.22;;
1545;SDS011;766;51.502;9.752;2023-09-12T01:34:10;17.85;;;6.18;;
1545;SDS011;766;51.502;9.752;2023-09-12T01:36:40;14.00;;;6.55;;
1545;SDS011;766;51.502;9.752;2023-09-12T01:39:09;15.35;;;6.20;;
1545;SDS011;766;51.502;9.752;2023-09-12T01:41:38;12.38;;;6.55;;
1545;SDS011;766;51.502;9.752;2023-09-12T01:44:09;15.18;;;7.93;;
1545;SDS011;766;51.502;9.752;2023-09-12T01:46:39;20.30;;;8.63;;
1545;SDS011;766;51.502;9.752;2023-09-12T01:49:09;11.40;;;7.15;;
1545;SDS011;766;51.502;9.752;2023-09-12T01:51:38;15.93;;;6.93;;
1545;SDS011;766;51.502;9.752;2023-09-12T01:54:07;14.05;;;7.13;;
1545;SDS011;766;51.502;9.752;2023-09-12T01:56:37;14.27;;;6.45;;
1545;SDS011;766;51.502;9.752;2023-09-12T01:59:06;16.65;;;6.78;;
1545;SDS011;766;51.502;9.752;2023-09-12T02:01:36;15.90;;;7.40;;
1545;SDS011;766;51.502;9.752;2023-09-12T02:04:04;15.82;;;7.20;;
1545;SDS011;766;51.502;9.752;2023-09-12T02:06:35;16.50;;;7.45;;
1545;SDS011;766;51.502;9.752;2023-09-12T02:09:03;18.60;;;6.90;;
1545;SDS011;766;51.502;9.752;2023-09-12T02:11:32;15.55;;;6.22;;
1545;SDS011;766;51.502;9.752;2023-09-12T02:14:00;9.70;;;6.18;;
1545;SDS011;766;51.502;9.752;2023-09-12T02:16:28;12.88;;;6.50;;
1545;SDS011;766;51.502;9.752;2023-09-12T02:18:58;14.73;;;6.68;;
1545;SDS011;766;51.502;9.752;2023-09-12T02:21:27;17.75;;;6.47;;
1545;SDS011;766;51.502;9.752;2023-09-12T02:23:55;11.25;;;5.47;;
1545;SDS011;766;51.502;9.752;2023-09-12T02:26:23;10.95;;;5.85;;
1545;SDS011;766;51.502;9.752;2023-09-12T02:28:51;15.75;;;5.70;;
1545;SDS011;766;51.502;9.752;2023-09-12T02:31:19;13.85;;;6.18;;
1545;SDS011;766;51.502;9.752;2023-09-12T02:33:48;11.68;;;5.82;;
1545;SDS011;766;51.502;9.752;2023-09-12T02:36:17;12.68;;;5.65;;
1545;SDS011;766;51.502;9.752;2023-09-12T02:38:46;12.10;;;6.18;;
1545;SDS011;766;51.502;9.752;2023-09-12T02:41:14;17.67;;;6.65;;
1545;SDS011;766;51.502;9.752;2023-09-12T02:43:42;16.30;;;5.95;;
1545;SDS011;766;51.502;9.752;2023-09-12T02:46:10;13.98;;;5.97;;
1545;SDS011;766;51.502;9.752;2023-09-12T02:48:38;11.70;;;5.88;;
1545;SDS011;766;51.502;9.752;2023-09-12T02:51:07;13.48;;;5.78;;
1545;SDS011;766;51.502;9.752;2023-09-12T02:53:37;15.40;;;6.03;;
1545;SDS011;766;51.502;9.752;2023-09-12T02:56:05;13.60;;;7.10;;
1545;SDS011;766;51.502;9.752;2023-09-12T02:58:33;14.52;;;6.88;;
1545;SDS011;766;51.502;9.752;2023-09-12T03:01:01;14.05;;;6.22;;
1545;SDS011;766;51.502;9.752;2023-09-12T03:03:31;10.77;;;5.93;;
1545;SDS011;766;51.502;9.752;2023-09-12T03:06:01;10.63;;;5.80;;
1545;SDS011;766;51.502;9.752;2023-09-12T03:08:30;12.80;;;5.75;;
1545;SDS011;766;51.502;9.752;2023-09-12T03:10:59;11.60;;;4.95;;
1545;SDS011;766;51.502;9.752;2023-09-12T03:13:29;12.63;;;5.80;;
1545;SDS011;766;51.502;9.752;2023-09-12T03:15:57;18.10;;;5.70;;
1545;SDS011;766;51.502;9.752;2023-09-12T03:18:25;18.70;;;5.32;;
1545;SDS011;766;51.502;9.752;2023-09-12T03:20:54;16.08;;;5.65;;
1545;SDS011;766;51.502;9.752;2023-09-12T03:23:22;10.93;;;5.88;;
1545;SDS011;766;51.502;9.752;2023-09-12T03:25:50;11.43;;;5.55;;
1545;SDS011;766;51.502;9.752;2023-09-12T03:28:20;18.92;;;6.35;;
1545;SDS011;766;51.502;9.752;2023-09-12T03:30:48;16.30;;;5.95;;
1545;SDS011;766;51.502;9.752;2023-09-12T03:33:17;11.93;;;5.85;;
1545;SDS011;766;51.502;9.752;2023-09-12T03:35:45;11.70;;;5.50;;
1545;SDS011;766;51.502;9.752;2023-09-12T03:38:13;13.82;;;5.65;;
1545;SDS011;766;51.502;9.752;2023-09-12T03:40:41;9.52;;;5.15;;
1545;SDS011;766;51.502;9.752;2023-09-12T03:43:09;12.70;;;5.40;;
1545;SDS011;766;51.502;9.752;2023-09-12T03:45:39;12.20;;;5.43;;
1545;SDS011;766;51.502;9.752;2023-09-12T03:48:08;10.63;;;5.75;;
1545;SDS011;766;51.502;9.752;2023-09-12T03:50:36;11.40;;;5.90;;
1545;SDS011;766;51.502;9.752;2023-09-12T03:53:04;19.75;;;5.72;;
1545;SDS011;766;51.502;9.752;2023-09-12T03:55:32;15.20;;;5.53;;
1545;SDS011;766;51.502;9.752;2023-09-12T03:58:01;13.98;;;5.72;;
1545;SDS011;766;51.502;9.752;2023-09-12T04:00:29;14.75;;;6.25;;
1545;SDS011;766;51.502;9.752;2023-09-12T04:02:59;14.40;;;6.15;;
1545;SDS011;766;51.502;9.752;2023-09-12T04:05:27;16.00;;;6.57;;
1545;SDS011;766;51.502;9.752;2023-09-12T04:07:55;10.98;;;6.32;;
1545;SDS011;766;51.502;9.752;2023-09-12T04:10:24;15.95;;;7.10;;
1545;SDS011;766;51.502;9.752;2023-09-12T04:12:52;13.65;;;6.68;;
1545;SDS011;766;51.502;9.752;2023-09-12T04:15:20;14.88;;;6.35;;
1545;SDS011;766;51.502;9.752;2023-09-12T04:17:48;13.80;;;6.88;;
1545;SDS011;766;51.502;9.752;2023-09-12T04:20:18;21.98;;;7.70;;
1545;SDS011;766;51.502;9.752;2023-09-12T04:22:46;15.20;;;8.38;;
1545;SDS011;766;51.502;9.752;2023-09-12T04:25:15;15.88;;;8.00;;
1545;SDS011;766;51.502;9.752;2023-09-12T04:27:43;16.15;;;7.80;;
1545;SDS011;766;51.502;9.752;2023-09-12T04:30:11;17.40;;;7.15;;
1545;SDS011;766;51.502;9.752;2023-09-12T04:32:40;11.60;;;6.95;;
1545;SDS011;766;51.502;9.752;2023-09-12T04:35:08;17.70;;;7.38;;
1545;SDS011;766;51.502;9.752;2023-09-12T04:37:38;12.68;;;7.13;;
1545;SDS011;766;51.502;9.752;2023-09-12T04:40:07;16.23;;;6.80;;
1545;SDS011;766;51.502;9.752;2023-09-12T04:42:36;11.07;;;7.07;;
1545;SDS011;766;51.502;9.752;2023-09-12T04:45:04;11.18;;;6.35;;
1545;SDS011;766;51.502;9.752;2023-09-12T04:47:35;14.15;;;6.63;;
1545;SDS011;766;51.502;9.752;2023-09-12T04:50:04;13.40;;;6.75;;
1545;SDS011;766;51.502;9.752;2023-09-12T04:52:35;10.63;;;6.45;;
1545;SDS011;766;51.502;9.752;2023-09-12T04:55:05;17.95;;;6.80;;
1545;SDS011;766;51.502;9.752;2023-09-12T04:57:34;14.35;;;7.05;;
1545;SDS011;766;51.502;9.752;2023-09-12T05:00:04;21.30;;;7.85;;
1545;SDS011;766;51.502;9.752;2023-09-12T05:02:33;11.43;;;6.90;;
1545;SDS011;766;51.502;9.752;2023-09-12T05:05:01;14.43;;;7.35;;
1545;SDS011;766;51.502;9.752;2023-09-12T05:07:30;21.13;;;7.88;;
1545;SDS011;766;51.502;9.752;2023-09-12T05:09:58;15.82;;;7.72;;
1545;SDS011;766;51.502;9.752;2023-09-12T05:12:28;19.38;;;8.45;;
1545;SDS011;766;51.502;9.752;2023-09-12T05:14:56;17.63;;;7.90;;
1545;SDS011;766;51.502;9.752;2023-09-12T05:17:25;14.68;;;7.93;;
1545;SDS011;766;51.502;9.752;2023-09-12T05:19:53;17.77;;;7.82;;
1545;SDS011;766;51.502;9.752;2023-09-12T05:22:21;15.57;;;8.00;;
1545;SDS011;766;51.502;9.752;2023-09-12T05:24:49;25.25;;;8.90;;
1545;SDS011;766;51.502;9.752;2023-09-12T05:27:17;20.88;;;9.07;;
1545;SDS011;766;51.502;9.752;2023-09-12T05:29:47;14.80;;;8.60;;
1545;SDS011;766;51.502;9.752;2023-09-12T05:32:15;18.13;;;8.93;;
1545;SDS011;766;51.502;9.752;2023-09-12T05:34:44;15.32;;;8.18;;
1545;SDS011;766;51.502;9.752;2023-09-12T05:37:16;14.57;;;8.38;;
1545;SDS011;766;51.502;9.752;2023-09-12T05:39:45;28.17;;;10.07;;
1545;SDS011;766;51.502;9.752;2023-09-12T05:42:13;21.73;;;9.45;;
1545;SDS011;766;51.502;9.752;2023-09-12T05:44:48;26.48;;;9.65;;
1545;SDS011;766;51.502;9.752;2023-09-12T05:47:19;41.85;;;14.07;;
1545;SDS011;766;51.502;9.752;2023-09-12T05:49:47;20.13;;;10.02;;
1545;SDS011;766;51.502;9.752;2023-09-12T05:52:16;28.08;;;10.98;;
1545;SDS011;766;51.502;9.752;2023-09-12T05:54:44;20.23;;;9.85;;
1545;SDS011;766;51.502;9.752;2023-09-12T05:57:13;23.92;;;10.57;;
1545;SDS011;766;51.502;9.752;2023-09-12T05:59:41;21.83;;;10.48;;
1545;SDS011;766;51.502;9.752;2023-09-12T06:02:11;27.30;;;10.95;;
1545;SDS011;766;51.502;9.752;2023-09-12T06:04:39;22.85;;;11.65;;
1545;SDS011;766;51.502;9.752;2023-09-12T06:07:07;24.35;;;13.55;;
1545;SDS011;766;51.502;9.752;2023-09-12T06:09:36;15.70;;;12.57;;
1545;SDS011;766;51.502;9.752;2023-09-12T06:12:05;21.20;;;12.95;;
1545;SDS011;766;51.502;9.752;2023-09-12T06:14:34;27.83;;;13.85;;
1545;SDS011;766;51.502;9.752;2023-09-12T06:17:02;20.38;;;14.23;;
1545;SDS011;766;51.502;9.752;2023-09-12T06:19:32;22.40;;;12.68;;
1545;SDS011;766;51.502;9.752;2023-09-12T06:22:00;27.08;;;13.48;;
1545;SDS011;766;51.502;9.752;2023-09-12T06:24:29;22.73;;;13.20;;
1545;SDS011;766;51.502;9.752;2023-09-12T06:26:57;17.92;;;11.73;;
1545;SDS011;766;51.502;9.752;2023-09-12T06:29:25;23.38;;;13.77;;
1545;SDS011;766;51.502;9.752;2023-09-12T06:31:53;22.63;;;15.25;;
1545;SDS011;766;51.502;9.752;2023-09-12T06:34:23;23.48;;;14.75;;
1545;SDS011;766;51.502;9.752;2023-09-12T06:36:52;26.85;;;14.50;;
1545;SDS011;766;51.502;9.752;2023-09-12T06:39:21;26.30;;;14.02;;
1545;SDS011;766;51.502;9.752;2023-09-12T06:41:50;17.63;;;13.10;;
1545;SDS011;766;51.502;9.752;2023-09-12T06:44:21;18.88;;;13.68;;
1545;SDS011;766;51.502;9.752;2023-09-12T06:46:49;18.25;;;13.00;;
1545;SDS011;766;51.502;9.752;2023-09-12T06:49:18;18.05;;;13.15;;
1545;SDS011;766;51.502;9.752;2023-09-12T06:51:46;20.00;;;14.18;;
1545;SDS011;766;51.502;9.752;2023-09-12T06:54:18;25.40;;;15.80;;
1545;SDS011;766;51.502;9.752;2023-09-12T06:56:46;26.98;;;18.23;;
1545;SDS011;766;51.502;9.752;2023-09-12T06:59:15;26.92;;;18.50;;
1545;SDS011;766;51.502;9.752;2023-09-12T07:01:44;27.30;;;19.08;;
1545;SDS011;766;51.502;9.752;2023-09-12T07:04:13;25.30;;;19.92;;
1545;SDS011;766;51.502;9.752;2023-09-12T07:06:42;26.98;;;20.65;;
1545;SDS011;766;51.502;9.752;2023-09-12T07:09:10;25.00;;;20.52;;
1545;SDS011;766;51.502;9.752;2023-09-12T07:11:42;27.52;;;19.73;;
1545;SDS011;766;51.502;9.752;2023-09-12T07:14:10;24.98;;;19.58;;
1545;SDS011;766;51.502;9.752;2023-09-12T07:16:39;21.40;;;18.90;;
1545;SDS011;766;51.502;9.752;2023-09-12T07:19:07;26.63;;;18.83;;
1545;SDS011;766;51.502;9.752;2023-09-12T07:21:36;20.65;;;17.27;;
1545;SDS011;766;51.502;9.752;2023-09-12T07:24:04;20.02;;;16.38;;
1545;SDS011;766;51.502;9.752;2023-09-12T07:26:33;26.40;;;18.60;;
1545;SDS011;766;51.502;9.752;2023-09-12T07:29:03;24.88;;;17.75;;
1545;SDS011;766;51.502;9.752;2023-09-12T07:31:33;22.40;;;16.80;;
1545;SDS011;766;51.502;9.752;2023-09-12T07:34:02;21.77;;;16.08;;
1545;SDS011;766;51.502;9.752;2023-09-12T07:36:34;21.60;;;15.50;;
1545;SDS011;766;51.502;9.752;2023-09-12T07:39:03;18.60;;;14.93;;
1545;SDS011;766;51.502;9.752;2023-09-12T07:41:31;19.10;;;13.82;;
1545;SDS011;766;51.502;9.752;2023-09-12T07:44:00;15.88;;;14.15;;
1545;SDS011;766;51.502;9.752;2023-09-12T07:46:32;23.48;;;15.77;;
1545;SDS011;766;51.502;9.752;2023-09-12T07:49:00;20.80;;;15.65;;
1545;SDS011;766;51.502;9.752;2023-09-12T07:51:28;18.25;;;16.02;;
1545;SDS011;766;51.502;9.752;2023-09-12T07:53:57;19.48;;;14.32;;
1545;SDS011;766;51.502;9.752;2023-09-12T07:56:25;16.90;;;14.73;;
1545;SDS011;766;51.502;9.752;2023-09-12T07:58:53;16.77;;;13.18;;
1545;SDS011;766;51.502;9.752;2023-09-12T08:01:22;16.02;;;12.88;;
1545;SDS011;766;51.502;9.752;2023-09-12T08:03:51;15.85;;;11.65;;
1545;SDS011;766;51.502;9.752;2023-09-12T08:06:20;15.73;;;10.07;;
1545;SDS011;766;51.502;9.752;2023-09-12T08:08:50;12.75;;;8.30;;
1545;SDS011;766;51.502;9.752;2023-09-12T08:11:18;10.05;;;7.93;;
1545;SDS011;766;51.502;9.752;2023-09-12T08:13:48;11.27;;;7.00;;
1545;SDS011;766;51.502;9.752;2023-09-12T08:16:16;6.18;;;5.57;;
1545;SDS011;766;51.502;9.752;2023-09-12T08:18:45;8.50;;;5.78;;
1545;SDS011;766;51.502;9.752;2023-09-12T08:21:15;7.00;;;4.93;;
1545;SDS011;766;51.502;9.752;2023-09-12T08:23:43;8.50;;;5.20;;
1545;SDS011;766;51.502;9.752;2023-09-12T08:26:11;6.65;;;4.50;;
1545;SDS011;766;51.502;9.752;2023-09-12T08:28:40;7.18;;;4.45;;
1545;SDS011;766;51.502;9.752;2023-09-12T08:31:08;9.35;;;4.65;;
1545;SDS011;766;51.502;9.752;2023-09-12T08:33:36;10.90;;;5.05;;
1545;SDS011;766;51.502;9.752;2023-09-12T08:36:05;7.03;;;4.82;;
1545;SDS011;766;51.502;9.752;2023-09-12T08:38:34;6.22;;;4.40;;
1545;SDS011;766;51.502;9.752;2023-09-12T08:41:03;14.15;;;4.63;;
1545;SDS011;766;51.502;9.752;2023-09-12T08:43:33;12.77;;;5.00;;
1545;SDS011;766;51.502;9.752;2023-09-12T08:46:02;9.57;;;4.85;;
1545;SDS011;766;51.502;9.752;2023-09-12T08:48:32;8.55;;;4.90;;
1545;SDS011;766;51.502;9.752;2023-09-12T08:51:01;8.52;;;5.10;;
1545;SDS011;766;51.502;9.752;2023-09-12T08:53:31;9.65;;;4.88;;
1545;SDS011;766;51.502;9.752;2023-09-12T08:56:01;8.25;;;4.80;;
1545;SDS011;766;51.502;9.752;2023-09-12T08:58:30;6.30;;;4.93;;
1545;SDS011;766;51.502;9.752;2023-09-12T09:00:59;4.57;;;4.18;;
1545;SDS011;766;51.502;9.752;2023-09-12T09:03:29;8.63;;;5.00;;
1545;SDS011;766;51.502;9.752;2023-09-12T09:05:58;7.13;;;5.10;;
1545;SDS011;766;51.502;9.752;2023-09-12T09:08:27;7.50;;;4.60;;
1545;SDS011;766;51.502;9.752;2023-09-12T09:10:56;6.40;;;5.35;;
1545;SDS011;766;51.502;9.752;2023-09-12T09:13:26;9.85;;;5.18;;
1545;SDS011;766;51.502;9.752;2023-09-12T09:16:10;6.15;;;5.03;;
1545;SDS011;766;51.502;9.752;2023-09-12T09:18:52;6.18;;;5.30;;
1545;SDS011;766;51.502;9.752;2023-09-12T09:21:22;7.03;;;5.43;;
1545;SDS011;766;51.502;9.752;2023-09-12T09:23:52;9.38;;;5.65;;
1545;SDS011;766;51.502;9.752;2023-09-12T09:26:21;10.65;;;5.72;;
1545;SDS011;766;51.502;9.752;2023-09-12T09:29:06;10.05;;;5.82;;
1545;SDS011;766;51.502;9.752;2023-09-12T09:31:36;10.73;;;5.65;;
1545;SDS011;766;51.502;9.752;2023-09-12T09:34:11;9.88;;;5.35;;
1545;SDS011;766;51.502;9.752;2023-09-12T09:36:43;8.07;;;4.38;;
1545;SDS011;766;51.502;9.752;2023-09-12T09:39:12;8.70;;;4.90;;
1545;SDS011;766;51.502;9.752;2023-09-12T09:41:41;10.23;;;4.93;;
1545;SDS011;766;51.502;9.752;2023-09-12T09:44:10;7.07;;;5.38;;
1545;SDS011;766;51.502;9.752;2023-09-12T09:46:39;6.85;;;4.97;;
1545;SDS011;766;51.502;9.752;2023-09-12T09:49:11;7.93;;;5.47;;
1545;SDS011;766;51.502;9.752;2023-09-12T09:51:42;7.03;;;5.80;;
1545;SDS011;766;51.502;9.752;2023-09-12T09:54:10;10.68;;;5.38;;
1545;SDS011;766;51.502;9.752;2023-09-12T09:56:44;4.95;;;3.75;;
1545;SDS011;766;51.502;9.752;2023-09-12T09:59:16;6.43;;;4.53;;
1545;SDS011;766;51.502;9.752;2023-09-12T10:01:46;7.53;;;4.60;;
1545;SDS011;766;51.502;9.752;2023-09-12T10:04:17;6.13;;;4.38;;
1545;SDS011;766;51.502;9.752;2023-09-12T10:06:46;9.63;;;4.22;;
1545;SDS011;766;51.502;9.752;2023-09-12T10:09:15;6.82;;;4.20;;
1545;SDS011;766;51.502;9.752;2023-09-12T10:11:44;4.63;;;4.00;;
1545;SDS011;766;51.502;9.752;2023-09-12T10:14:16;11.57;;;4.90;;
1545;SDS011;766;51.502;9.752;2023-09-12T10:16:47;5.15;;;4.10;;
1545;SDS011;766;51.502;9.752;2023-09-12T10:19:19;6.20;;;4.25;;
1545;SDS011;766;51.502;9.752;2023-09-12T10:21:52;8.50;;;4.28;;
1545;SDS011;766;51.502;9.752;2023-09-12T10:24:26;8.20;;;3.70;;
1545;SDS011;766;51.502;9.752;2023-09-12T10:26:55;5.22;;;4.57;;
1545;SDS011;766;51.502;9.752;2023-09-12T10:29:25;7.20;;;4.30;;
1545;SDS011;766;51.502;9.752;2023-09-12T10:31:54;6.47;;;4.57;;
1545;SDS011;766;51.502;9.752;2023-09-12T10:34:24;12.93;;;4.57;;
1545;SDS011;766;51.502;9.752;2023-09-12T10:36:53;6.47;;;4.25;;
1545;SDS011;766;51.502;9.752;2023-09-12T10:39:25;4.68;;;3.83;;
1545;SDS011;766;51.502;9.752;2023-09-12T10:41:55;5.38;;;4.05;;
1545;SDS011;766;51.502;9.752;2023-09-12T10:44:27;5.53;;;3.38;;
1545;SDS011;766;51.502;9.752;2023-09-12T10:46:57;7.95;;;4.25;;
1545;SDS011;766;51.502;9.752;2023-09-12T10:49:26;4.72;;;3.80;;
1545;SDS011;766;51.502;9.752;2023-09-12T10:51:55;4.93;;;3.30;;
1545;SDS011;766;51.502;9.752;2023-09-12T10:54:25;8.85;;;4.30;;
1545;SDS011;766;51.502;9.752;2023-09-12T10:57:04;11.25;;;4.65;;
1545;SDS011;766;51.502;9.752;2023-09-12T10:59:35;9.35;;;5.05;;
1545;SDS011;766;51.502;9.752;2023-09-12T11:04:56;9.15;;;4.82;;
1545;SDS011;766;51.502;9.752;2023-09-12T11:07:30;11.50;;;5.85;;
1545;SDS011;766;51.502;9.752;2023-09-12T11:10:16;10.38;;;5.88;;
1545;SDS011;766;51.502;9.752;2023-09-12T11:12:46;14.07;;;5.55;;
1545;SDS011;766;51.502;9.752;2023-09-12T11:15:18;14.15;;;5.57;;
1545;SDS011;766;51.502;9.752;2023-09-12T11:17:48;11.15;;;5.18;;
1545;SDS011;766;51.502;9.752;2023-09-12T11:20:27;11.23;;;5.07;;
1545;SDS011;766;51.502;9.752;2023-09-12T11:23:20;10.18;;;5.10;;
1545;SDS011;766;51.502;9.752;2023-09-12T11:25:48;9.55;;;5.53;;
1545;SDS011;766;51.502;9.752;2023-09-12T11:28:31;10.02;;;5.63;;
1545;SDS011;766;51.502;9.752;2023-09-12T11:31:01;13.57;;;5.75;;
1545;SDS011;766;51.502;9.752;2023-09-12T11:33:32;9.80;;;6.35;;
1545;SDS011;766;51.502;9.752;2023-09-12T11:36:02;14.02;;;5.72;;
1545;SDS011;766;51.502;9.752;2023-09-12T11:38:37;10.10;;;5.03;;
1545;SDS011;766;51.502;9.752;2023-09-12T11:41:05;13.63;;;4.97;;
1545;SDS011;766;51.502;9.752;2023-09-12T11:43:33;6.85;;;4.65;;
1545;SDS011;766;51.502;9.752;2023-09-12T11:46:07;6.10;;;4.80;;
1545;SDS011;766;51.502;9.752;2023-09-12T11:48:36;9.38;;;5.25;;
1545;SDS011;766;51.502;9.752;2023-09-12T11:51:06;6.68;;;4.47;;
1545;SDS011;766;51.502;9.752;2023-09-12T11:53:35;5.25;;;4.18;;
1545;SDS011;766;51.502;9.752;2023-09-12T11:56:03;7.97;;;4.65;;
1545;SDS011;766;51.502;9.752;2023-09-12T11:58:32;5.30;;;4.10;;
1545;SDS011;766;51.502;9.752;2023-09-12T12:01:01;5.55;;;4.53;;
1545;SDS011;766;51.502;9.752;2023-09-12T12:03:31;7.72;;;4.82;;
1545;SDS011;766;51.502;9.752;2023-09-12T12:05:59;6.97;;;4.20;;
1545;SDS011;766;51.502;9.752;2023-09-12T12:08:28;5.85;;;4.00;;
1545;SDS011;766;51.502;9.752;2023-09-12T12:10:58;4.80;;;4.32;;
1545;SDS011;766;51.502;9.752;2023-09-12T12:13:28;6.90;;;3.85;;
1545;SDS011;766;51.502;9.752;2023-09-12T12:15:56;8.82;;;4.05;;
1545;SDS011;766;51.502;9.752;2023-09-12T12:18:25;5.22;;;4.03;;
1545;SDS011;766;51.502;9.752;2023-09-12T12:20:55;7.90;;;4.28;;
1545;SDS011;766;51.502;9.752;2023-09-12T12:23:24;8.15;;;3.83;;
1545;SDS011;766;51.502;9.752;2023-09-12T12:25:53;5.57;;;3.88;;
1545;SDS011;766;51.502;9.752;2023-09-12T12:28:21;6.00;;;4.00;;
1545;SDS011;766;51.502;9.752;2023-09-12T12:30:50;6.22;;;4.28;;
1545;SDS011;766;51.502;9.752;2023-09-12T12:33:22;6.30;;;3.95;;
1545;SDS011;766;51.502;9.752;2023-09-12T12:36:11;5.18;;;4.13;;
1545;SDS011;766;51.502;9.752;2023-09-12T12:38:40;9.23;;;3.92;;
1545;SDS011;766;51.502;9.752;2023-09-12T12:41:22;7.75;;;4.32;;
1545;SDS011;766;51.502;9.752;2023-09-12T12:43:56;7.55;;;4.07;;
1545;SDS011;766;51.502;9.752;2023-09-12T12:46:29;6.10;;;4.03;;
1545;SDS011;766;51.502;9.752;2023-09-12T12:48:57;4.97;;;3.70;;
1545;SDS011;766;51.502;9.752;2023-09-12T12:51:27;6.78;;;3.95;;
1545;SDS011;766;51.502;9.752;2023-09-12T12:54:03;4.68;;;3.65;;
1545;SDS011;766;51.502;9.752;2023-09-12T12:56:32;5.07;;;4.60;;
1545;SDS011;766;51.502;9.752;2023-09-12T12:59:04;3.95;;;3.55;;
1545;SDS011;766;51.502;9.752;2023-09-12T13:01:35;5.85;;;3.50;;
1545;SDS011;766;51.502;9.752;2023-09-12T13:04:05;3.95;;;3.08;;
1545;SDS011;766;51.502;9.752;2023-09-12T13:06:39;4.70;;;3.60;;
1545;SDS011;766;51.502;9.752;2023-09-12T13:09:07;4.88;;;3.70;;
1545;SDS011;766;51.502;9.752;2023-09-12T13:11:38;3.83;;;3.40;;
1545;SDS011;766;51.502;9.752;2023-09-12T13:14:06;5.78;;;3.78;;
1545;SDS011;766;51.502;9.752;2023-09-12T13:16:38;3.90;;;3.50;;
1545;SDS011;766;51.502;9.752;2023-09-12T13:19:08;7.93;;;4.70;;
1545;SDS011;766;51.502;9.752;2023-09-12T13:21:39;3.85;;;3.40;;
1545;SDS011;766;51.502;9.752;2023-09-12T13:24:07;5.82;;;3.33;;
1545;SDS011;766;51.502;9.752;2023-09-12T13:26:36;3.40;;;2.97;;
1545;SDS011;766;51.502;9.752;2023-09-12T13:29:04;7.32;;;3.63;;
1545;SDS011;766;51.502;9.752;2023-09-12T13:31:32;4.65;;;4.00;;
1545;SDS011;766;51.502;9.752;2023-09-12T13:34:00;8.38;;;3.00;;
1545;SDS011;766;51.502;9.752;2023-09-12T13:36:29;6.95;;;3.22;;
1545;SDS011;766;51.502;9.752;2023-09-12T13:38:59;7.43;;;3.30;;
1545;SDS011;766;51.502;9.752;2023-09-12T13:41:27;5.38;;;2.90;;
1545;SDS011;766;51.502;9.752;2023-09-12T13:43:55;3.72;;;2.88;;
1545;SDS011;766;51.502;9.752;2023-09-12T13:46:24;4.00;;;2.97;;
1545;SDS011;766;51.502;9.752;2023-09-12T13:48:52;6.57;;;2.55;;
1545;SDS011;766;51.502;9.752;2023-09-12T13:51:20;7.57;;;2.90;;
1545;SDS011;766;51.502;9.752;2023-09-12T13:53:49;5.18;;;2.60;;
1545;SDS011;766;51.502;9.752;2023-09-12T13:56:18;5.60;;;3.30;;
1545;SDS011;766;51.502;9.752;2023-09-12T13:58:46;4.35;;;2.90;;
1545;SDS011;766;51.502;9.752;2023-09-12T14:01:16;4.22;;;3.70;;
1545;SDS011;766;51.502;9.752;2023-09-12T14:04:00;3.58;;;2.30;;
1545;SDS011;766;51.502;9.752;2023-09-12T14:06:29;3.50;;;2.72;;
1545;SDS011;766;51.502;9.752;2023-09-12T14:09:03;4.55;;;2.58;;
1545;SDS011;766;51.502;9.752;2023-09-12T14:11:33;3.53;;;2.53;;
1545;SDS011;766;51.502;9.752;2023-09-12T14:14:03;4.15;;;2.65;;
1545;SDS011;766;51.502;9.752;2023-09-12T14:16:34;5.35;;;2.67;;
1545;SDS011;766;51.502;9.752;2023-09-12T14:19:03;3.65;;;2.45;;
1545;SDS011;766;51.502;9.752;2023-09-12T14:21:32;8.20;;;2.67;;
1545;SDS011;766;51.502;9.752;2023-09-12T14:24:01;4.00;;;2.70;;
1545;SDS011;766;51.502;9.752;2023-09-12T14:26:33;3.47;;;2.80;;
1545;SDS011;766;51.502;9.752;2023-09-12T14:29:01;3.22;;;2.42;;
1545;SDS011;766;51.502;9.752;2023-09-12T14:31:31;3.33;;;3.03;;
1545;SDS011;766;51.502;9.752;2023-09-12T14:33:59;4.72;;;2.70;;
1545;SDS011;766;51.502;9.752;2023-09-12T14:36:28;2.60;;;2.40;;
1545;SDS011;766;51.502;9.752;2023-09-12T14:38:57;3.28;;;2.97;;
1545;SDS011;766;51.502;9.752;2023-09-12T14:41:25;4.78;;;2.70;;
1545;SDS011;766;51.502;9.752;2023-09-12T14:43:55;3.65;;;2.90;;
1545;SDS011;766;51.502;9.752;2023-09-12T14:46:23;3.55;;;2.50;;
1545;SDS011;766;51.502;9.752;2023-09-12T14:48:51;5.15;;;2.65;;
1545;SDS011;766;51.502;9.752;2023-09-12T14:51:27;3.22;;;2.70;;
1545;SDS011;766;51.502;9.752;2023-09-12T14:54:00;3.20;;;2.70;;
1545;SDS011;766;51.502;9.752;2023-09-12T14:56:29;4.78;;;2.60;;
1545;SDS011;766;51.502;9.752;2023-09-12T14:58:59;4.03;;;2.45;;
1545;SDS011;766;51.502;9.752;2023-09-12T15:01:27;4.57;;;2.70;;
1545;SDS011;766;51.502;9.752;2023-09-12T15:03:56;4.05;;;3.13;;
1545;SDS011;766;51.502;9.752;2023-09-12T15:06:25;8.07;;;3.05;;
1545;SDS011;766;51.502;9.752;2023-09-12T15:08:53;6.55;;;3.13;;
1545;SDS011;766;51.502;9.752;2023-09-12T15:11:21;3.70;;;2.50;;
1545;SDS011;766;51.502;9.752;2023-09-12T15:13:49;3.83;;;2.80;;
1545;SDS011;766;51.502;9.752;2023-09-12T15:16:19;3.10;;;2.78;;
1545;SDS011;766;51.502;9.752;2023-09-12T15:18:48;3.13;;;2.40;;
1545;SDS011;766;51.502;9.752;2023-09-12T15:21:18;3.92;;;2.80;;
1545;SDS011;766;51.502;9.752;2023-09-12T15:23:46;3.05;;;2.50;;
1545;SDS011;766;51.502;9.752;2023-09-12T15:26:15;4.00;;;2.70;;
1545;SDS011;766;51.502;9.752;2023-09-12T15:28:43;2.92;;;2.67;;
1545;SDS011;766;51.502;9.752;2023-09-12T15:31:11;2.75;;;2.50;;
1545;SDS011;766;51.502;9.752;2023-09-12T15:33:41;6.10;;;2.70;;
1545;SDS011;766;51.502;9.752;2023-09-12T15:36:10;3.33;;;2.47;;
1545;SDS011;766;51.502;9.752;2023-09-12T15:38:38;5.35;;;2.88;;
1545;SDS011;766;51.502;9.752;2023-09-12T15:41:06;4.28;;;2.80;;
1545;SDS011;766;51.502;9.752;2023-09-12T15:43:37;4.45;;;2.45;;